sensor_id;sensor_type;location;lat;lon;timestamp;pressure;altitude;pressure_sealevel;temperature;humidity
50282;BME280;36176;51.506;10.272;2024-03-06T00:00:17;99594.59;;;5.29;94.73
50282;BME280;36176;51.506;10.272;2024-03-06T00:03:08;99595.41;;;5.32;94.43
50282;BME280;36176;51.506;10.272;2024-03-06T00:06:50;99603.09;;;5.40;94.61
50282;BME280;36176;51.506;10.272;2024-03-06T00:10:27;99603.00;;;5.43;94.60
50282;BME280;36176;51.506;10.272;2024-03-06T00:13:10;99607.38;;;5.44;93.73
50282;BME280;36176;51.506;10.272;2024-03-06T00:16:07;99605.53;;;5.48;93.25
50282;BME280;36176;51.506;10.272;2024-03-06T00:19:11;99609.94;;;5.47;93.18
50282;BME280;36176;51.506;10.272;2024-03-06T00:22:34;99613.50;;;5.45;93.88
50282;BME280;36176;51.506;10.272;2024-03-06T00:39:42;99626.72;;;5.42;92.62
50282;BME280;36176;51.506;10.272;2024-03-06T00:50:46;99640.84;;;5.36;92.37
50282;BME280;36176;51.506;10.272;2024-03-06T00:57:24;99636.41;;;5.38;93.17
50282;BME280;36176;51.506;10.272;2024-03-06T01:03:56;99635.75;;;5.30;92.29
50282;BME280;36176;51.506;10.272;2024-03-06T01:07:17;99637.47;;;5.31;92.42
50282;BME280;36176;51.506;10.272;2024-03-06T01:10:42;99646.19;;;5.31;91.91
50282;BME280;36176;51.506;10.272;2024-03-06T01:17:30;99641.88;;;5.30;91.41
50282;BME280;36176;51.506;10.272;2024-03-06T01:20:42;99643.72;;;5.27;90.73
50282;BME280;36176;51.506;10.272;2024-03-06T01:23:48;99643.66;;;5.28;91.28
50282;BME280;36176;51.506;10.272;2024-03-06T01:27:22;99654.25;;;5.25;91.50
50282;BME280;36176;51.506;10.272;2024-03-06T01:30:38;99656.94;;;5.22;91.27
50282;BME280;36176;51.506;10.272;2024-03-06T01:33:37;99660.50;;;5.20;91.45
50282;BME280;36176;51.506;10.272;2024-03-06T01:36:35;99661.44;;;5.17;91.64
50282;BME280;36176;51.506;10.272;2024-03-06T01:40:14;99667.56;;;5.16;91.59
50282;BME280;36176;51.506;10.272;2024-03-06T01:47:19;99666.84;;;5.09;92.02
50282;BME280;36176;51.506;10.272;2024-03-06T01:50:46;99667.72;;;5.10;92.77
50282;BME280;36176;51.506;10.272;2024-03-06T01:54:07;99669.44;;;5.11;92.55
50282;BME280;36176;51.506;10.272;2024-03-06T01:57:28;99666.00;;;5.07;91.98
50282;BME280;36176;51.506;10.272;2024-03-06T02:01:13;99671.31;;;5.06;91.98
50282;BME280;36176;51.506;10.272;2024-03-06T02:04:24;99681.00;;;5.02;92.10
50282;BME280;36176;51.506;10.272;2024-03-06T02:07:50;99677.53;;;5.00;91.59
50282;BME280;36176;51.506;10.272;2024-03-06T02:11:32;99681.94;;;5.00;92.10
50282;BME280;36176;51.506;10.272;2024-03-06T02:14:58;99675.00;;;4.97;91.55
50282;BME280;36176;51.506;10.272;2024-03-06T02:18:05;99686.41;;;4.96;92.24
50282;BME280;36176;51.506;10.272;2024-03-06T02:21:25;99678.44;;;4.99;92.40
50282;BME280;36176;51.506;10.272;2024-03-06T02:24:38;99681.00;;;5.02;92.44
50282;BME280;36176;51.506;10.272;2024-03-06T02:27:45;99686.22;;;5.04;92.39
50282;BME280;36176;51.506;10.272;2024-03-06T02:30:44;99684.47;;;5.04;92.18
50282;BME280;36176;51.506;10.272;2024-03-06T02:34:05;99690.56;;;5.05;92.42
50282;BME280;36176;51.506;10.272;2024-03-06T02:41:24;99695.78;;;5.08;93.15
50282;BME280;36176;51.506;10.272;2024-03-06T02:45:03;99704.53;;;5.07;92.81
50282;BME280;36176;51.506;10.272;2024-03-06T02:55:30;99710.72;;;5.04;92.51
50282;BME280;36176;51.506;10.272;2024-03-06T02:58:57;99703.69;;;5.05;92.63
50282;BME280;36176;51.506;10.272;2024-03-06T03:01:55;99696.75;;;5.02;91.44
50282;BME280;36176;51.506;10.272;2024-03-06T03:05:33;99705.53;;;5.03;92.05
50282;BME280;36176;51.506;10.272;2024-03-06T03:51:28;99721.38;;;4.98;93.64
50282;BME280;36176;51.506;10.272;2024-03-06T03:58:36;99725.91;;;4.90;92.48
50282;BME280;36176;51.506;10.272;2024-03-06T04:02:37;99726.81;;;4.89;92.00
50282;BME280;36176;51.506;10.272;2024-03-06T04:13:34;99750.59;;;4.81;92.06
50282;BME280;36176;51.506;10.272;2024-03-06T04:17:06;99742.75;;;4.78;91.75
50282;BME280;36176;51.506;10.272;2024-03-06T04:27:35;99747.31;;;4.68;92.62
50282;BME280;36176;51.506;10.272;2024-03-06T05:02:21;99781.66;;;4.56;92.04
50282;BME280;36176;51.506;10.272;2024-03-06T05:05:24;99786.97;;;4.53;92.27
50282;BME280;36176;51.506;10.272;2024-03-06T05:08:40;99788.69;;;4.54;92.24
50282;BME280;36176;51.506;10.272;2024-03-06T05:11:24;99787.84;;;4.54;93.23
50282;BME280;36176;51.506;10.272;2024-03-06T05:14:08;99785.19;;;4.55;92.55
50282;BME280;36176;51.506;10.272;2024-03-06T05:16:53;99784.31;;;4.55;92.54
50282;BME280;36176;51.506;10.272;2024-03-06T05:19:37;99788.69;;;4.56;92.83
50282;BME280;36176;51.506;10.272;2024-03-06T05:22:21;99789.53;;;4.56;93.47
50282;BME280;36176;51.506;10.272;2024-03-06T05:25:06;99788.69;;;4.54;93.54
50282;BME280;36176;51.506;10.272;2024-03-06T05:27:50;99796.63;;;4.51;93.50
50282;BME280;36176;51.506;10.272;2024-03-06T05:30:34;99804.50;;;4.51;93.49
50282;BME280;36176;51.506;10.272;2024-03-06T05:33:19;99803.66;;;4.49;93.39
50282;BME280;36176;51.506;10.272;2024-03-06T05:36:04;99801.03;;;4.49;93.52
50282;BME280;36176;51.506;10.272;2024-03-06T05:38:48;99804.47;;;4.53;93.44
50282;BME280;36176;51.506;10.272;2024-03-06T05:41:33;99808.81;;;4.55;93.72
50282;BME280;36176;51.506;10.272;2024-03-06T05:44:18;99810.47;;;4.59;93.70
50282;BME280;36176;51.506;10.272;2024-03-06T05:47:02;99815.63;;;4.64;93.61
50282;BME280;36176;51.506;10.272;2024-03-06T05:49:47;99819.97;;;4.66;93.53
50282;BME280;36176;51.506;10.272;2024-03-06T05:52:32;99819.97;;;4.66;92.77
50282;BME280;36176;51.506;10.272;2024-03-06T05:55:16;99822.56;;;4.68;93.12
50282;BME280;36176;51.506;10.272;2024-03-06T05:58:01;99827.75;;;4.71;93.04
50282;BME280;36176;51.506;10.272;2024-03-06T06:00:43;99833.84;;;4.75;92.71
50282;BME280;36176;51.506;10.272;2024-03-06T06:03:11;99828.66;;;4.70;93.12
50282;BME280;36176;51.506;10.272;2024-03-06T06:05:39;99839.19;;;4.68;92.33
50282;BME280;36176;51.506;10.272;2024-03-06T06:08:08;99835.75;;;4.65;92.58
50282;BME280;36176;51.506;10.272;2024-03-06T06:10:38;99848.91;;;4.63;92.35
50282;BME280;36176;51.506;10.272;2024-03-06T06:13:05;99845.44;;;4.61;92.59
50282;BME280;36176;51.506;10.272;2024-03-06T06:15:32;99853.25;;;4.64;92.54
50282;BME280;36176;51.506;10.272;2024-03-06T06:18:01;99841.94;;;4.61;92.62
50282;BME280;36176;51.506;10.272;2024-03-06T06:20:28;99855.97;;;4.60;92.68
50282;BME280;36176;51.506;10.272;2024-03-06T06:22:56;99855.97;;;4.60;92.95
50282;BME280;36176;51.506;10.272;2024-03-06T06:25:23;99866.41;;;4.63;93.56
50282;BME280;36176;51.506;10.272;2024-03-06T06:27:53;99867.22;;;4.66;92.81
50282;BME280;36176;51.506;10.272;2024-03-06T06:30:20;99869.81;;;4.69;93.05
50282;BME280;36176;51.506;10.272;2024-03-06T06:32:47;99874.91;;;4.77;93.69
50282;BME280;36176;51.506;10.272;2024-03-06T06:35:14;99872.22;;;4.82;92.74
50282;BME280;36176;51.506;10.272;2024-03-06T06:37:41;99883.50;;;4.87;93.00
50282;BME280;36176;51.506;10.272;2024-03-06T06:40:09;99877.34;;;4.89;92.31
50282;BME280;36176;51.506;10.272;2024-03-06T06:42:37;99878.13;;;4.93;91.78
50282;BME280;36176;51.506;10.272;2024-03-06T06:45:05;99885.94;;;4.98;91.41
50282;BME280;36176;51.506;10.272;2024-03-06T06:47:32;99888.53;;;4.99;91.31
50282;BME280;36176;51.506;10.272;2024-03-06T06:49:59;99893.78;;;5.01;90.69
50282;BME280;36176;51.506;10.272;2024-03-06T06:52:27;99903.38;;;5.02;90.11
50282;BME280;36176;51.506;10.272;2024-03-06T06:54:54;99909.44;;;5.05;90.35
50282;BME280;36176;51.506;10.272;2024-03-06T06:57:21;99910.16;;;5.15;90.82
50282;BME280;36176;51.506;10.272;2024-03-06T06:59:48;99912.56;;;5.26;90.62
50282;BME280;36176;51.506;10.272;2024-03-06T07:02:15;99915.19;;;5.27;90.36
50282;BME280;36176;51.506;10.272;2024-03-06T07:04:43;99914.19;;;5.31;89.71
50282;BME280;36176;51.506;10.272;2024-03-06T07:07:10;99919.44;;;5.35;89.61
50282;BME280;36176;51.506;10.272;2024-03-06T07:09:37;99923.81;;;5.34;89.05
50282;BME280;36176;51.506;10.272;2024-03-06T07:12:04;99921.03;;;5.42;89.74
50282;BME280;36176;51.506;10.272;2024-03-06T07:14:32;99928.72;;;5.52;89.25
50282;BME280;36176;51.506;10.272;2024-03-06T07:17:03;99926.84;;;5.59;89.19
50282;BME280;36176;51.506;10.272;2024-03-06T07:19:31;99932.84;;;5.64;88.82
50282;BME280;36176;51.506;10.272;2024-03-06T07:21:58;99935.41;;;5.69;88.00
50282;BME280;36176;51.506;10.272;2024-03-06T07:24:25;99944.13;;;5.71;87.21
50282;BME280;36176;51.506;10.272;2024-03-06T07:26:52;99944.97;;;5.73;87.33
50282;BME280;36176;51.506;10.272;2024-03-06T07:29:19;99939.72;;;5.73;87.52
50282;BME280;36176;51.506;10.272;2024-03-06T07:31:46;99943.28;;;5.70;87.01
50282;BME280;36176;51.506;10.272;2024-03-06T07:34:14;99951.25;;;5.66;86.40
50282;BME280;36176;51.506;10.272;2024-03-06T07:36:41;99955.56;;;5.68;86.59
50282;BME280;36176;51.506;10.272;2024-03-06T07:39:09;99947.78;;;5.64;86.19
50282;BME280;36176;51.506;10.272;2024-03-06T07:41:36;99947.78;;;5.62;86.12
50282;BME280;36176;51.506;10.272;2024-03-06T07:44:03;99956.56;;;5.63;85.25
50282;BME280;36176;51.506;10.272;2024-03-06T07:46:30;99961.81;;;5.63;85.23
50282;BME280;36176;51.506;10.272;2024-03-06T07:48:57;99961.75;;;5.66;85.25
50282;BME280;36176;51.506;10.272;2024-03-06T07:51:25;99959.84;;;5.74;85.86
50282;BME280;36176;51.506;10.272;2024-03-06T07:53:52;99964.91;;;5.83;85.34
50282;BME280;36176;51.506;10.272;2024-03-06T07:56:19;99969.09;;;5.95;84.27
50282;BME280;36176;51.506;10.272;2024-03-06T07:58:49;99975.84;;;6.08;83.91
50282;BME280;36176;51.506;10.272;2024-03-06T08:01:17;99972.88;;;6.25;85.13
50282;BME280;36176;51.506;10.272;2024-03-06T08:03:44;99976.34;;;6.26;82.66
50282;BME280;36176;51.506;10.272;2024-03-06T08:06:11;99975.34;;;6.31;82.99
50282;BME280;36176;51.506;10.272;2024-03-06T08:08:43;99983.81;;;6.46;82.85
50282;BME280;36176;51.506;10.272;2024-03-06T08:11:14;99984.44;;;6.57;82.32
50282;BME280;36176;51.506;10.272;2024-03-06T08:13:41;99988.66;;;6.66;81.22
50282;BME280;36176;51.506;10.272;2024-03-06T08:16:08;99987.63;;;6.71;81.28
50282;BME280;36176;51.506;10.272;2024-03-06T08:18:36;99982.97;;;6.82;81.58
50282;BME280;36176;51.506;10.272;2024-03-06T08:21:03;99988.09;;;6.89;80.13
50282;BME280;36176;51.506;10.272;2024-03-06T08:23:34;99994.06;;;6.97;80.42
50282;BME280;36176;51.506;10.272;2024-03-06T08:26:01;99996.53;;;7.01;80.04
50282;BME280;36176;51.506;10.272;2024-03-06T08:28:31;99994.63;;;7.08;80.52
50282;BME280;36176;51.506;10.272;2024-03-06T08:31:00;99997.91;;;7.18;80.48
50282;BME280;36176;51.506;10.272;2024-03-06T08:33:27;100000.44;;;7.22;78.77
50282;BME280;36176;51.506;10.272;2024-03-06T08:35:54;100006.63;;;7.21;77.90
50282;BME280;36176;51.506;10.272;2024-03-06T08:38:22;100001.56;;;7.12;77.47
50282;BME280;36176;51.506;10.272;2024-03-06T08:40:50;100009.25;;;7.21;78.25
50282;BME280;36176;51.506;10.272;2024-03-06T08:43:18;100008.00;;;7.36;78.47
50282;BME280;36176;51.506;10.272;2024-03-06T08:45:45;100010.19;;;7.53;75.69
50282;BME280;36176;51.506;10.272;2024-03-06T08:48:12;100008.78;;;7.74;77.56
50282;BME280;36176;51.506;10.272;2024-03-06T08:50:39;100008.94;;;7.99;75.35
50282;BME280;36176;51.506;10.272;2024-03-06T08:53:09;100012.84;;;8.17;74.52
50282;BME280;36176;51.506;10.272;2024-03-06T08:55:39;100021.25;;;8.31;75.45
50282;BME280;36176;51.506;10.272;2024-03-06T08:58:09;100013.81;;;8.46;73.41
50282;BME280;36176;51.506;10.272;2024-03-06T09:00:36;100020.44;;;8.59;72.67
50282;BME280;36176;51.506;10.272;2024-03-06T09:03:04;100023.63;;;8.70;72.01
50282;BME280;36176;51.506;10.272;2024-03-06T09:05:31;100024.25;;;9.07;71.92
50282;BME280;36176;51.506;10.272;2024-03-06T09:07:59;100016.97;;;9.92;71.30
50282;BME280;36176;51.506;10.272;2024-03-06T09:10:29;100026.84;;;10.37;67.55
50282;BME280;36176;51.506;10.272;2024-03-06T09:12:56;100024.06;;;10.40;66.58
50282;BME280;36176;51.506;10.272;2024-03-06T09:15:23;100027.59;;;10.15;64.35
50282;BME280;36176;51.506;10.272;2024-03-06T09:17:50;100035.44;;;9.93;66.59
50282;BME280;36176;51.506;10.272;2024-03-06T09:20:17;100036.28;;;9.69;65.81
50282;BME280;36176;51.506;10.272;2024-03-06T09:22:47;100035.19;;;9.49;66.45
50282;BME280;36176;51.506;10.272;2024-03-06T09:25:14;100046.28;;;9.34;67.91
50282;BME280;36176;51.506;10.272;2024-03-06T09:27:43;100053.72;;;9.23;68.96
50282;BME280;36176;51.506;10.272;2024-03-06T09:30:11;100053.41;;;9.32;69.73
50282;BME280;36176;51.506;10.272;2024-03-06T09:32:38;100062.38;;;9.26;67.78
50282;BME280;36176;51.506;10.272;2024-03-06T09:35:06;100057.56;;;9.12;68.19
50282;BME280;36176;51.506;10.272;2024-03-06T09:37:33;100064.88;;;9.31;70.18
50282;BME280;36176;51.506;10.272;2024-03-06T09:40:01;100053.53;;;9.55;68.84
50282;BME280;36176;51.506;10.272;2024-03-06T09:42:28;100055.66;;;9.69;69.17
50282;BME280;36176;51.506;10.272;2024-03-06T09:44:55;100057.03;;;9.81;68.99
50282;BME280;36176;51.506;10.272;2024-03-06T09:47:22;100064.16;;;9.79;68.56
50282;BME280;36176;51.506;10.272;2024-03-06T09:49:51;100063.16;;;9.56;67.99
50282;BME280;36176;51.506;10.272;2024-03-06T09:52:19;100077.00;;;9.38;67.91
50282;BME280;36176;51.506;10.272;2024-03-06T09:54:47;100078.31;;;9.25;69.38
50282;BME280;36176;51.506;10.272;2024-03-06T09:57:15;100071.09;;;9.30;67.80
50282;BME280;36176;51.506;10.272;2024-03-06T09:59:42;100078.34;;;9.23;69.33
50282;BME280;36176;51.506;10.272;2024-03-06T10:02:31;100076.53;;;9.25;67.54
50282;BME280;36176;51.506;10.272;2024-03-06T10:05:01;100078.09;;;9.31;68.41
50282;BME280;36176;51.506;10.272;2024-03-06T10:07:29;100083.34;;;9.32;67.89
50282;BME280;36176;51.506;10.272;2024-03-06T10:09:56;100084.06;;;9.37;67.02
50282;BME280;36176;51.506;10.272;2024-03-06T10:12:23;100085.59;;;9.45;68.84
50282;BME280;36176;51.506;10.272;2024-03-06T10:14:53;100087.84;;;9.57;68.21
50282;BME280;36176;51.506;10.272;2024-03-06T10:17:21;100081.31;;;9.67;66.87
50282;BME280;36176;51.506;10.272;2024-03-06T10:19:49;100088.91;;;9.78;67.48
50282;BME280;36176;51.506;10.272;2024-03-06T10:22:18;100086.41;;;9.73;66.40
50282;BME280;36176;51.506;10.272;2024-03-06T10:24:54;100092.13;;;9.86;66.38
50282;BME280;36176;51.506;10.272;2024-03-06T10:27:24;100089.88;;;10.00;64.82
50282;BME280;36176;51.506;10.272;2024-03-06T10:30:02;100090.84;;;9.98;64.43
50282;BME280;36176;51.506;10.272;2024-03-06T10:32:32;100098.25;;;9.88;65.05
50282;BME280;36176;51.506;10.272;2024-03-06T10:34:59;100099.34;;;10.08;65.84
50282;BME280;36176;51.506;10.272;2024-03-06T10:37:28;100097.38;;;10.39;66.27
50282;BME280;36176;51.506;10.272;2024-03-06T10:39:58;100098.81;;;10.72;63.93
50282;BME280;36176;51.506;10.272;2024-03-06T10:42:28;100098.59;;;10.54;63.69
50282;BME280;36176;51.506;10.272;2024-03-06T10:45:04;100117.69;;;10.39;63.42
50282;BME280;36176;51.506;10.272;2024-03-06T10:47:33;100108.31;;;10.30;64.79
50282;BME280;36176;51.506;10.272;2024-03-06T10:50:01;100104.16;;;10.21;63.11
50282;BME280;36176;51.506;10.272;2024-03-06T10:52:30;100104.59;;;10.09;64.74
50282;BME280;36176;51.506;10.272;2024-03-06T10:55:00;100114.59;;;10.01;63.84
50282;BME280;36176;51.506;10.272;2024-03-06T10:57:32;100111.78;;;10.06;64.55
50282;BME280;36176;51.506;10.272;2024-03-06T11:00:00;100112.16;;;9.95;64.65
50282;BME280;36176;51.506;10.272;2024-03-06T11:02:32;100110.81;;;9.82;62.99
50282;BME280;36176;51.506;10.272;2024-03-06T11:05:02;100120.50;;;9.83;64.75
50282;BME280;36176;51.506;10.272;2024-03-06T11:07:31;100121.88;;;9.94;65.05
50282;BME280;36176;51.506;10.272;2024-03-06T11:10:03;100115.75;;;9.92;64.70
50282;BME280;36176;51.506;10.272;2024-03-06T11:12:38;100117.25;;;10.01;65.43
50282;BME280;36176;51.506;10.272;2024-03-06T11:15:23;100110.59;;;10.14;65.04
50282;BME280;36176;51.506;10.272;2024-03-06T11:17:53;100121.59;;;10.29;61.66
50282;BME280;36176;51.506;10.272;2024-03-06T11:20:21;100107.78;;;10.19;63.63
50282;BME280;36176;51.506;10.272;2024-03-06T11:28:17;100115.09;;;10.37;62.24
50282;BME280;36176;51.506;10.272;2024-03-06T11:33:21;100119.22;;;10.19;62.40
50282;BME280;36176;51.506;10.272;2024-03-06T11:36:14;100113.63;;;10.29;62.91
50282;BME280;36176;51.506;10.272;2024-03-06T11:38:41;100122.41;;;10.31;63.71
50282;BME280;36176;51.506;10.272;2024-03-06T11:41:09;100117.50;;;10.43;62.71
50282;BME280;36176;51.506;10.272;2024-03-06T11:43:42;100113.00;;;10.47;62.61
50282;BME280;36176;51.506;10.272;2024-03-06T11:46:10;100119.72;;;10.56;62.75
50282;BME280;36176;51.506;10.272;2024-03-06T11:48:38;100116.91;;;10.60;62.38
50282;BME280;36176;51.506;10.272;2024-03-06T11:51:05;100109.31;;;10.51;62.03
50282;BME280;36176;51.506;10.272;2024-03-06T11:53:35;100107.81;;;10.44;64.35
50282;BME280;36176;51.506;10.272;2024-03-06T11:56:06;100116.44;;;10.49;64.26
50282;BME280;36176;51.506;10.272;2024-03-06T11:58:34;100113.38;;;10.60;63.29
50282;BME280;36176;51.506;10.272;2024-03-06T12:01:02;100114.78;;;10.47;62.12
50282;BME280;36176;51.506;10.272;2024-03-06T12:03:30;100120.41;;;10.37;63.67
50282;BME280;36176;51.506;10.272;2024-03-06T12:05:58;100118.56;;;10.39;62.89
50282;BME280;36176;51.506;10.272;2024-03-06T12:08:26;100104.34;;;10.42;63.45
50282;BME280;36176;51.506;10.272;2024-03-06T12:10:53;100108.50;;;10.49;64.16
50282;BME280;36176;51.506;10.272;2024-03-06T12:13:20;100107.00;;;10.66;63.95
50282;BME280;36176;51.506;10.272;2024-03-06T12:15:48;100108.09;;;10.83;63.22
50282;BME280;36176;51.506;10.272;2024-03-06T12:18:17;100111.03;;;10.76;61.66
50282;BME280;36176;51.506;10.272;2024-03-06T12:20:49;100109.59;;;10.91;63.47
50282;BME280;36176;51.506;10.272;2024-03-06T12:23:21;100114.28;;;11.06;63.07
50282;BME280;36176;51.506;10.272;2024-03-06T12:25:49;100108.34;;;11.23;61.38
50282;BME280;36176;51.506;10.272;2024-03-06T12:28:31;100109.69;;;11.33;62.07
50282;BME280;36176;51.506;10.272;2024-03-06T12:31:02;100107.59;;;11.41;61.82
50282;BME280;36176;51.506;10.272;2024-03-06T12:33:30;100101.72;;;11.55;61.82
50282;BME280;36176;51.506;10.272;2024-03-06T12:36:07;100105.66;;;11.67;60.77
50282;BME280;36176;51.506;10.272;2024-03-06T12:38:36;100094.91;;;11.92;62.02
50282;BME280;36176;51.506;10.272;2024-03-06T12:41:05;100098.16;;;12.19;61.51
50282;BME280;36176;51.506;10.272;2024-03-06T12:43:32;100097.97;;;12.24;59.49
50282;BME280;36176;51.506;10.272;2024-03-06T12:46:00;100093.06;;;12.15;59.33
50282;BME280;36176;51.506;10.272;2024-03-06T12:48:31;100092.06;;;12.17;61.23
50282;BME280;36176;51.506;10.272;2024-03-06T12:50:58;100096.41;;;12.18;59.99
50282;BME280;36176;51.506;10.272;2024-03-06T12:53:26;100099.41;;;12.10;58.56
50282;BME280;36176;51.506;10.272;2024-03-06T12:55:53;100099.28;;;11.93;59.46
50282;BME280;36176;51.506;10.272;2024-03-06T12:58:20;100088.50;;;11.76;59.90
50282;BME280;36176;51.506;10.272;2024-03-06T13:00:47;100091.06;;;11.57;61.00
50282;BME280;36176;51.506;10.272;2024-03-06T13:03:14;100098.72;;;11.42;61.37
50282;BME280;36176;51.506;10.272;2024-03-06T13:05:42;100089.81;;;11.43;62.42
50282;BME280;36176;51.506;10.272;2024-03-06T13:08:10;100092.81;;;11.56;60.77
50282;BME280;36176;51.506;10.272;2024-03-06T13:10:37;100089.88;;;11.64;60.25
50282;BME280;36176;51.506;10.272;2024-03-06T13:13:04;100091.59;;;11.65;60.75
50282;BME280;36176;51.506;10.272;2024-03-06T13:15:32;100083.09;;;11.77;60.21
50282;BME280;36176;51.506;10.272;2024-03-06T13:18:02;100088.00;;;11.88;60.38
50282;BME280;36176;51.506;10.272;2024-03-06T13:20:33;100081.78;;;12.09;60.25
50282;BME280;36176;51.506;10.272;2024-03-06T13:23:01;100083.03;;;12.21;58.94
50282;BME280;36176;51.506;10.272;2024-03-06T13:25:28;100076.06;;;12.19;57.77
50282;BME280;36176;51.506;10.272;2024-03-06T13:27:56;100076.88;;;12.40;59.94
50282;BME280;36176;51.506;10.272;2024-03-06T13:30:23;100074.69;;;12.68;60.50
50282;BME280;36176;51.506;10.272;2024-03-06T13:32:51;100083.50;;;12.69;56.43
50282;BME280;36176;51.506;10.272;2024-03-06T13:35:19;100090.28;;;12.57;60.20
50282;BME280;36176;51.506;10.272;2024-03-06T13:37:47;100078.88;;;12.74;59.39
50282;BME280;36176;51.506;10.272;2024-03-06T13:40:14;100082.44;;;12.92;59.42
50282;BME280;36176;51.506;10.272;2024-03-06T13:42:44;100077.94;;;12.94;58.46
50282;BME280;36176;51.506;10.272;2024-03-06T13:45:14;100079.72;;;12.74;57.91
50282;BME280;36176;51.506;10.272;2024-03-06T13:47:43;100077.50;;;12.65;57.79
50282;BME280;36176;51.506;10.272;2024-03-06T13:50:12;100084.81;;;12.60;57.52
50282;BME280;36176;51.506;10.272;2024-03-06T13:52:41;100083.84;;;12.42;58.08
50282;BME280;36176;51.506;10.272;2024-03-06T13:55:09;100074.72;;;12.08;58.26
50282;BME280;36176;51.506;10.272;2024-03-06T13:57:38;100079.66;;;11.97;59.68
50282;BME280;36176;51.506;10.272;2024-03-06T14:00:09;100076.19;;;11.95;59.88
50282;BME280;36176;51.506;10.272;2024-03-06T14:02:40;100075.75;;;11.84;59.53
50282;BME280;36176;51.506;10.272;2024-03-06T14:05:07;100078.91;;;11.94;58.66
50282;BME280;36176;51.506;10.272;2024-03-06T14:07:34;100084.16;;;11.95;59.28
50282;BME280;36176;51.506;10.272;2024-03-06T14:10:02;100084.66;;;11.83;59.13
50282;BME280;36176;51.506;10.272;2024-03-06T14:12:32;100085.72;;;11.79;59.77
50282;BME280;36176;51.506;10.272;2024-03-06T14:15:03;100086.31;;;11.85;60.12
50282;BME280;36176;51.506;10.272;2024-03-06T14:17:31;100088.88;;;11.88;59.16
50282;BME280;36176;51.506;10.272;2024-03-06T14:19:58;100088.09;;;11.85;60.10
50282;BME280;36176;51.506;10.272;2024-03-06T14:22:25;100085.16;;;11.93;60.48
50282;BME280;36176;51.506;10.272;2024-03-06T14:24:52;100094.28;;;11.85;59.50
50282;BME280;36176;51.506;10.272;2024-03-06T14:27:22;100095.78;;;11.93;61.36
50282;BME280;36176;51.506;10.272;2024-03-06T14:29:49;100087.19;;;12.06;60.92
50282;BME280;36176;51.506;10.272;2024-03-06T14:32:18;100095.34;;;12.02;59.77
50282;BME280;36176;51.506;10.272;2024-03-06T14:34:46;100092.25;;;11.92;59.80
50282;BME280;36176;51.506;10.272;2024-03-06T14:37:13;100093.47;;;11.83;61.09
50282;BME280;36176;51.506;10.272;2024-03-06T14:39:40;100092.38;;;11.89;61.91
50282;BME280;36176;51.506;10.272;2024-03-06T14:42:07;100096.88;;;11.87;62.56
50282;BME280;36176;51.506;10.272;2024-03-06T14:44:36;100095.69;;;11.94;62.25
50282;BME280;36176;51.506;10.272;2024-03-06T14:47:06;100092.44;;;11.87;61.34
50282;BME280;36176;51.506;10.272;2024-03-06T14:49:33;100094.47;;;11.81;62.48
50282;BME280;36176;51.506;10.272;2024-03-06T14:52:01;100095.84;;;11.69;61.69
50282;BME280;36176;51.506;10.272;2024-03-06T14:54:34;100104.94;;;11.41;63.68
50282;BME280;36176;51.506;10.272;2024-03-06T14:57:01;100095.63;;;11.31;64.66
50282;BME280;36176;51.506;10.272;2024-03-06T14:59:29;100095.94;;;11.23;65.15
50282;BME280;36176;51.506;10.272;2024-03-06T15:01:56;100091.91;;;11.13;65.51
50282;BME280;36176;51.506;10.272;2024-03-06T15:04:23;100098.50;;;11.03;65.52
50282;BME280;36176;51.506;10.272;2024-03-06T15:06:50;100101.59;;;10.92;66.25
50282;BME280;36176;51.506;10.272;2024-03-06T15:09:22;100100.34;;;10.77;67.04
50282;BME280;36176;51.506;10.272;2024-03-06T15:11:50;100099.81;;;10.69;67.16
50282;BME280;36176;51.506;10.272;2024-03-06T15:14:18;100102.44;;;10.69;67.81
50282;BME280;36176;51.506;10.272;2024-03-06T15:16:45;100097.19;;;10.68;68.38
50282;BME280;36176;51.506;10.272;2024-03-06T15:19:13;100107.00;;;10.66;68.95
50282;BME280;36176;51.506;10.272;2024-03-06T15:21:44;100106.22;;;10.63;68.81
50282;BME280;36176;51.506;10.272;2024-03-06T15:24:13;100102.75;;;10.61;69.24
50282;BME280;36176;51.506;10.272;2024-03-06T15:26:40;100108.25;;;10.55;69.43
50282;BME280;36176;51.506;10.272;2024-03-06T15:29:08;100102.28;;;10.50;69.78
50282;BME280;36176;51.506;10.272;2024-03-06T15:31:35;100112.06;;;10.48;70.34
50282;BME280;36176;51.506;10.272;2024-03-06T15:34:02;100115.00;;;10.40;70.19
50282;BME280;36176;51.506;10.272;2024-03-06T15:36:30;100110.94;;;10.30;69.97
50282;BME280;36176;51.506;10.272;2024-03-06T15:38:57;100104.16;;;10.21;70.41
50282;BME280;36176;51.506;10.272;2024-03-06T15:41:24;100117.66;;;10.14;70.81
50282;BME280;36176;51.506;10.272;2024-03-06T15:43:51;100118.00;;;10.05;70.75
50282;BME280;36176;51.506;10.272;2024-03-06T15:46:18;100112.84;;;10.00;71.72
50282;BME280;36176;51.506;10.272;2024-03-06T15:48:46;100117.31;;;9.98;72.43
50282;BME280;36176;51.506;10.272;2024-03-06T15:51:13;100122.72;;;9.95;73.31
50282;BME280;36176;51.506;10.272;2024-03-06T15:53:42;100120.19;;;9.92;73.28
50282;BME280;36176;51.506;10.272;2024-03-06T15:56:10;100126.41;;;9.91;73.41
50282;BME280;36176;51.506;10.272;2024-03-06T15:58:37;100128.97;;;9.94;74.03
50282;BME280;36176;51.506;10.272;2024-03-06T16:01:04;100133.44;;;9.92;73.64
50282;BME280;36176;51.506;10.272;2024-03-06T16:03:33;100127.31;;;9.90;73.73
50282;BME280;36176;51.506;10.272;2024-03-06T16:06:01;100130.13;;;9.85;74.47
50282;BME280;36176;51.506;10.272;2024-03-06T16:08:43;100134.91;;;9.74;74.60
50282;BME280;36176;51.506;10.272;2024-03-06T16:11:10;100135.94;;;9.70;75.01